Главная страница
METAR-TAF:

METAR-TAF

Аэропорты :

Лаппеэнранта, Финляндия

широта: 61-02-45N, долгота: 028-08-55E, высота над уровнем моря: 106 м

Текущие метеонаблюдения

Эта сводка был подготовлена 15 минут назад, в 16:50 UTC
Ветер 5 Узел от западный
Температура 8°C
Влажность 87%
Давление 1009 hPa
Видимость 10 км и более
Сплошная облачность на высоте 1400 фута

METAR: EFLP 191650Z AUTO 26005KT 9999 OVC014 08/06 Q1009

Время: 20:05 (17:05 UTC)

Прогноз

Эта сводка был подготовлена 8 часа и 35 минут назад, в 08:30 UTC
Прогноз действительный с 19-го 09 UTC до 19-го 12 UTC
Ветер 8 Узел от северно-северо-западный
Видимость 10 км и более
Рассеянная облачность на высоте 1500 фута
временами
С 19-го 09 UTC до 19-го 12 UTC
Рассеянная облачность на высоте 1400 фута

TAF: EFLP 190830Z 1909/1912 34008KT 9999 BKN015 TEMPO 1909/1912 BKN014

Метеонаблюдения и прогнозы для более 4000 аэропортов (сводки METAR и TAF).

Имеющиеся станции представлены на карте желтыми и красными точками.

Чтобы увидеть название станции, наведите на нее мышь.

Затем щелкните, чтобы увидеть метеонаблюдения и метеопрогнозы.

Управление картой: чтобы увеличить масштаб, щелкните зеленые кнопки с черным крестиком; чтобы уменьшить масштаб, щелкните зеленую кнопку с тире; для просмотра соседних карт щелкайте зеленые стрелки.


METAR-TAF: